Terminal Aerodrome Forecast
Issued by NWS

Home | Current Version | Previous Version | Graphics & Text | Print | Product List | Glossary On
Versions: 1 2 3 4 5 6 7 8 9 10 11 12 13 14 15 16 17 18 19
000
FTUS43 KGRB 250500
TAFCWA
TAF
KCWA 250531Z 2506/2606 30008KT 5SM -SN OVC030
      TEMPO 2506/2508 2SM -SN SCT007 BKN015
     FM251000 30007KT P6SM OVC020
     FM251500 28007KT P6SM BKN025 BKN100
     FM251900 27007KT P6SM FEW030 SCT100
     FM252300 23003KT P6SM FEW100
      AMD LTD TO CLD VIS AND WIND TIL 251200=

USA.gov is the U.S. government's official web portal to all federal, state and local government web resources and services.